createdAt,value
2023-03-06T00:01:01.847Z,69.99
2023-03-06T00:03:34.741Z,69.66
2023-03-06T00:06:06.554Z,69.48
2023-03-06T00:08:40.290Z,69.44
2023-03-06T00:11:15.875Z,69.49
2023-03-06T00:13:48.968Z,69.00
2023-03-06T00:16:20.311Z,68.90
2023-03-06T00:18:51.678Z,69.23
2023-03-06T00:21:23.113Z,68.89
2023-03-06T00:23:54.507Z,68.53
2023-03-06T00:26:25.759Z,68.51
2023-03-06T00:28:58.636Z,68.31
2023-03-06T00:31:29.701Z,67.88
2023-03-06T00:34:01.126Z,67.92
2023-03-06T00:36:32.318Z,67.84
2023-03-06T00:39:03.422Z,67.38
2023-03-06T00:41:34.469Z,66.90
2023-03-06T00:44:07.456Z,67.11
2023-03-06T00:46:38.914Z,66.95
2023-03-06T00:49:10.146Z,67.04
2023-03-06T00:51:42.235Z,66.33
2023-03-06T00:54:13.812Z,67.02
2023-03-06T00:56:45.144Z,66.27
2023-03-06T00:59:17.926Z,66.56
2023-03-06T01:01:48.994Z,66.16
2023-03-06T01:04:20.292Z,65.59
2023-03-06T01:06:51.917Z,65.91
2023-03-06T01:09:23.149Z,65.41
2023-03-06T01:11:54.476Z,65.29
2023-03-06T01:14:27.503Z,64.85
2023-03-06T01:16:58.767Z,64.77
2023-03-06T01:19:30.086Z,65.10
2023-03-06T01:22:04.721Z,64.54
2023-03-06T01:24:36.298Z,64.11
2023-03-06T01:27:07.713Z,64.39
2023-03-06T01:29:40.589Z,63.98
2023-03-06T01:32:12.003Z,63.94
2023-03-06T01:34:43.180Z,63.31
2023-03-06T01:37:14.351Z,63.21
2023-03-06T01:39:45.298Z,62.80
2023-03-06T01:42:16.980Z,62.63
2023-03-06T01:45:09.030Z,62.34
2023-03-06T01:47:40.413Z,62.35
2023-03-06T01:50:13.955Z,62.11
2023-03-06T01:52:50.260Z,61.98
2023-03-06T01:55:23.829Z,61.46
2023-03-06T01:57:58.768Z,61.32
2023-03-06T02:00:33.247Z,61.29
2023-03-06T02:03:09.735Z,60.93
2023-03-06T02:05:42.781Z,60.74
2023-03-06T02:08:17.065Z,60.25
2023-03-06T02:11:00.282Z,60.34
2023-03-06T02:13:32.375Z,59.90
2023-03-06T02:16:05.909Z,59.80
2023-03-06T02:18:37.804Z,59.48
2023-03-06T02:21:12.294Z,59.93
2023-03-06T02:23:52.203Z,59.66
2023-03-06T02:26:25.602Z,59.22
2023-03-06T02:28:58.468Z,58.80
2023-03-06T02:31:31.374Z,58.55
2023-03-06T02:34:11.004Z,58.27
2023-03-06T02:36:47.446Z,58.08
2023-03-06T02:39:21.877Z,58.66
2023-03-06T02:41:55.008Z,58.96
2023-03-06T02:44:27.731Z,58.84
2023-03-06T02:46:58.799Z,59.03
2023-03-06T02:49:29.991Z,57.90
2023-03-06T02:52:01.503Z,58.21
2023-03-06T02:54:32.859Z,57.48
2023-03-06T02:57:05.819Z,57.28
2023-03-06T02:59:37.077Z,57.64
2023-03-06T03:02:08.332Z,58.39
2023-03-06T03:04:39.954Z,58.25
2023-03-06T03:07:11.325Z,57.79
2023-03-06T03:09:42.518Z,58.00
2023-03-06T03:12:15.843Z,57.50
2023-03-06T03:14:47.580Z,57.66
2023-03-06T03:17:18.808Z,57.72
2023-03-06T03:19:50.084Z,58.18
2023-03-06T03:22:21.596Z,58.36
2023-03-06T03:24:52.909Z,58.83
2023-03-06T03:27:26.121Z,59.47
2023-03-06T03:29:59.684Z,59.70
2023-03-06T03:32:31.083Z,60.26
2023-03-06T03:35:03.459Z,60.18
2023-03-06T03:37:35.849Z,60.49
2023-03-06T03:40:07.776Z,60.87
2023-03-06T03:42:41.223Z,60.96
2023-03-06T03:45:13.316Z,61.39
2023-03-06T03:47:44.676Z,61.18
2023-03-06T03:50:15.990Z,61.40
2023-03-06T03:52:47.295Z,61.48
2023-03-06T03:55:18.642Z,61.86
2023-03-06T03:57:51.581Z,61.68
2023-03-06T04:00:23.725Z,62.32
2023-03-06T04:02:54.961Z,62.20
2023-03-06T04:05:26.446Z,62.83
2023-03-06T04:07:57.527Z,63.20
2023-03-06T04:10:29.007Z,63.14
2023-03-06T04:13:02.108Z,63.55
2023-03-06T04:15:33.517Z,63.86
2023-03-06T04:18:04.802Z,63.98
2023-03-06T04:20:36.236Z,64.31
2023-03-06T04:23:07.464Z,64.45
2023-03-06T04:25:38.615Z,64.53
2023-03-06T04:28:12.009Z,63.85
2023-03-06T04:30:43.317Z,64.42
2023-03-06T04:33:14.533Z,64.16
2023-03-06T04:35:45.823Z,63.96
2023-03-06T04:38:17.132Z,64.09
2023-03-06T04:40:48.303Z,63.95
2023-03-06T04:43:21.561Z,63.40
2023-03-06T04:45:53.008Z,63.35
2023-03-06T04:48:26.108Z,63.33
2023-03-06T04:50:57.359Z,63.17
2023-03-06T04:53:28.267Z,63.38
2023-03-06T04:55:59.610Z,63.94
2023-03-06T04:58:32.356Z,64.39
2023-03-06T05:01:03.832Z,65.07
2023-03-06T05:03:35.445Z,65.06
2023-03-06T05:06:06.831Z,65.39
2023-03-06T05:08:38.659Z,65.11
2023-03-06T05:11:10.101Z,64.81
2023-03-06T05:13:43.932Z,64.83
2023-03-06T05:16:15.291Z,65.09
2023-03-06T05:18:48.363Z,64.98
2023-03-06T05:21:20.561Z,65.29
2023-03-06T05:23:52.058Z,64.97
2023-03-06T05:26:24.330Z,65.21
2023-03-06T05:28:57.237Z,65.12
2023-03-06T05:31:28.705Z,64.90
2023-03-06T05:34:01.792Z,65.20
2023-03-06T05:36:33.815Z,65.33
2023-03-06T05:39:05.265Z,65.37
2023-03-06T05:41:39.483Z,65.36
2023-03-06T05:44:12.410Z,65.60
2023-03-06T05:46:43.532Z,65.73
2023-03-06T05:49:14.884Z,65.46
2023-03-06T05:51:46.067Z,65.27
2023-03-06T05:54:17.405Z,65.41
2023-03-06T05:56:48.598Z,64.98
2023-03-06T05:59:21.485Z,65.13
2023-03-06T06:01:52.619Z,65.13
2023-03-06T06:04:24.029Z,65.31
2023-03-06T06:06:56.912Z,65.03
2023-03-06T06:09:28.816Z,65.35
2023-03-06T06:12:02.128Z,64.86
2023-03-06T06:14:37.353Z,65.13
2023-03-06T06:17:08.516Z,64.83
2023-03-06T06:19:39.846Z,65.17
2023-03-06T06:22:10.559Z,65.07
2023-03-06T06:24:41.247Z,65.36
2023-03-06T06:27:12.439Z,65.54
2023-03-06T06:29:44.618Z,65.63
2023-03-06T06:32:22.649Z,65.63
2023-03-06T06:34:54.012Z,65.45
2023-03-06T06:37:26.183Z,66.01
2023-03-06T06:39:57.566Z,66.29
2023-03-06T06:42:36.979Z,65.84
2023-03-06T06:45:14.133Z,66.14
2023-03-06T06:47:45.603Z,66.72
2023-03-06T06:50:17.493Z,66.67
2023-03-06T06:52:51.775Z,66.84
2023-03-06T06:55:23.165Z,66.69
2023-03-06T06:57:54.095Z,66.96
2023-03-06T07:00:39.216Z,67.19
2023-03-06T07:03:10.483Z,67.34
2023-03-06T07:05:41.032Z,67.72
2023-03-06T07:08:11.972Z,67.70
2023-03-06T07:10:42.593Z,68.15
2023-03-06T07:13:13.574Z,68.39
2023-03-06T07:15:46.083Z,68.86
2023-03-06T07:18:16.606Z,69.35
2023-03-06T07:20:47.057Z,69.17
2023-03-06T07:23:18.049Z,69.56
2023-03-06T07:25:48.867Z,69.35
2023-03-06T07:28:19.725Z,69.73
2023-03-06T07:30:52.060Z,69.33
2023-03-06T07:33:22.474Z,69.69
2023-03-06T07:35:52.905Z,70.13
2023-03-06T07:38:23.432Z,70.27
2023-03-06T07:40:54.868Z,71.04
2023-03-06T07:43:25.417Z,71.30
2023-03-06T07:46:03.619Z,71.95
2023-03-06T07:48:34.036Z,72.45
2023-03-06T07:51:06.211Z,72.80
2023-03-06T07:53:36.836Z,73.40
2023-03-06T07:56:09.852Z,73.85
2023-03-06T07:58:40.785Z,74.13
2023-03-06T08:01:14.797Z,73.91
2023-03-06T08:03:52.442Z,74.39
2023-03-06T08:06:25.593Z,74.88
2023-03-06T08:09:06.451Z,75.25
2023-03-06T08:11:36.998Z,75.73
2023-03-06T08:14:09.657Z,76.43
2023-03-06T08:16:52.764Z,76.45
2023-03-06T08:19:23.382Z,77.19
2023-03-06T08:22:03.067Z,77.01
2023-03-06T08:24:33.640Z,76.85
2023-03-06T08:27:47.672Z,77.34
2023-03-06T08:30:18.684Z,77.32
2023-03-06T08:32:50.800Z,77.83
2023-03-06T08:35:29.751Z,78.19
2023-03-06T08:38:00.384Z,78.04
2023-03-06T08:40:37.541Z,77.92
2023-03-06T08:43:28.711Z,78.25
2023-03-06T08:46:02.981Z,78.24
2023-03-06T08:48:35.250Z,78.84
2023-03-06T08:51:06.005Z,78.57
2023-03-06T08:53:43.129Z,78.84
2023-03-06T08:56:23.557Z,79.12
2023-03-06T08:58:55.527Z,79.11
2023-03-06T09:01:30.053Z,79.82
2023-03-06T09:04:03.841Z,79.73
2023-03-06T09:06:36.316Z,80.09
2023-03-06T09:09:13.772Z,80.19
2023-03-06T09:11:47.215Z,80.46
2023-03-06T09:14:18.724Z,80.49
2023-03-06T09:16:49.297Z,80.71
2023-03-06T09:19:21.546Z,80.78
2023-03-06T09:21:52.651Z,80.59
2023-03-06T09:24:23.291Z,80.74
2023-03-06T09:26:53.905Z,81.27
2023-03-06T09:29:24.508Z,80.97
2023-03-06T09:31:55.082Z,81.23
2023-03-06T09:34:28.508Z,81.39
2023-03-06T09:36:58.950Z,81.02
2023-03-06T09:39:29.858Z,81.18
2023-03-06T09:42:00.858Z,81.25
2023-03-06T09:44:33.782Z,81.08
2023-03-06T09:47:29.500Z,81.51
2023-03-06T09:50:17.658Z,81.98
2023-03-06T09:53:00.648Z,82.14
2023-03-06T09:55:36.894Z,82.03
2023-03-06T09:58:14.228Z,81.98
2023-03-06T10:00:54.523Z,82.48
2023-03-06T10:03:30.290Z,82.20
2023-03-06T10:06:07.851Z,82.26
2023-03-06T10:08:49.583Z,82.24
2023-03-06T10:11:27.878Z,82.43
2023-03-06T10:14:14.955Z,82.52
2023-03-06T10:16:46.669Z,82.89
2023-03-06T10:19:19.821Z,82.20
2023-03-06T10:21:59.143Z,82.43
2023-03-06T10:24:48.909Z,82.46
2023-03-06T10:27:30.430Z,82.75
2023-03-06T10:30:20.913Z,82.47
2023-03-06T10:32:58.791Z,82.57
2023-03-06T10:35:33.929Z,82.79
2023-03-06T10:38:19.614Z,82.60
2023-03-06T10:41:02.464Z,82.60
2023-03-06T10:43:40.017Z,82.03
2023-03-06T10:46:12.223Z,82.14
2023-03-06T10:48:53.619Z,82.45
2023-03-06T10:51:26.550Z,82.00
2023-03-06T10:54:01.285Z,82.14
2023-03-06T10:56:35.374Z,82.15
2023-03-06T10:59:11.509Z,82.35
2023-03-06T11:01:48.918Z,82.35
2023-03-06T11:04:43.201Z,82.01
2023-03-06T11:07:26.011Z,82.02
2023-03-06T11:10:23.596Z,82.00
2023-03-06T11:13:26.093Z,82.22
2023-03-06T11:16:10.927Z,82.08
2023-03-06T11:18:47.635Z,81.88
2023-03-06T11:21:34.871Z,81.73
2023-03-06T11:24:13.603Z,81.86
2023-03-06T11:27:00.369Z,82.28
2023-03-06T11:29:44.057Z,81.98
2023-03-06T11:32:34.662Z,82.43
2023-03-06T11:35:21.021Z,82.20
2023-03-06T11:38:01.268Z,82.54
2023-03-06T11:40:40.424Z,82.44
2023-03-06T11:43:30.040Z,82.84
2023-03-06T11:46:11.224Z,83.13
2023-03-06T11:48:51.466Z,83.02
2023-03-06T11:51:26.778Z,82.94
2023-03-06T11:54:01.307Z,83.39
2023-03-06T11:56:46.579Z,82.98
2023-03-06T11:59:39.836Z,83.39
2023-03-06T12:02:42.008Z,83.16
2023-03-06T12:05:31.113Z,83.37
2023-03-06T12:08:17.231Z,83.51
2023-03-06T12:10:56.859Z,83.14
2023-03-06T12:13:40.500Z,82.91
2023-03-06T12:16:39.488Z,82.98
2023-03-06T12:19:36.688Z,82.64
2023-03-06T12:22:34.761Z,82.59
2023-03-06T12:25:37.581Z,82.57
2023-03-06T12:28:34.968Z,82.92
2023-03-06T12:31:25.914Z,82.91
2023-03-06T12:34:27.112Z,82.88
2023-03-06T12:37:14.536Z,82.85
2023-03-06T12:40:10.875Z,83.06
2023-03-06T12:43:08.101Z,82.96
2023-03-06T12:45:45.130Z,82.58
2023-03-06T12:48:23.831Z,82.24
2023-03-06T12:51:00.322Z,82.42
2023-03-06T12:53:36.068Z,82.37
2023-03-06T12:56:08.047Z,82.48
2023-03-06T12:59:01.784Z,82.29
2023-03-06T13:02:01.806Z,82.62
2023-03-06T13:05:03.985Z,82.23
2023-03-06T13:07:56.512Z,82.06
2023-03-06T13:10:31.545Z,82.10
2023-03-06T13:13:06.185Z,82.15
2023-03-06T13:15:42.729Z,82.42
2023-03-06T13:18:58.474Z,82.26
2023-03-06T13:22:11.978Z,82.06
2023-03-06T13:24:46.744Z,82.15
2023-03-06T13:28:01.810Z,82.31
2023-03-06T13:30:46.769Z,82.26
2023-03-06T13:33:58.086Z,82.64
2023-03-06T13:36:34.269Z,82.88
2023-03-06T13:39:07.474Z,82.75
2023-03-06T13:42:04.437Z,83.21
2023-03-06T13:44:46.984Z,83.17
2023-03-06T13:50:47.378Z,82.89
2023-03-06T13:54:01.509Z,83.17
2023-03-06T13:57:05.062Z,82.96
2023-03-06T14:04:32.529Z,83.18
2023-03-06T14:07:35.827Z,83.04
2023-03-06T14:10:28.572Z,82.94
2023-03-06T14:13:13.146Z,82.47
2023-03-06T14:15:54.054Z,82.62
2023-03-06T14:18:49.560Z,82.82
2023-03-06T14:21:32.877Z,82.81
2023-03-06T14:24:29.686Z,82.92
2023-03-06T14:30:56.073Z,82.72
2023-03-06T14:33:42.756Z,82.94
2023-03-06T14:36:18.126Z,82.70
2023-03-06T14:38:57.184Z,82.83
2023-03-06T14:41:30.467Z,82.88
2023-03-06T14:44:20.547Z,83.06
2023-03-06T14:46:56.049Z,82.94
2023-03-06T14:49:30.863Z,82.63
2023-03-06T14:52:03.008Z,82.74
2023-03-06T14:54:45.881Z,83.04
2023-03-06T14:57:20.200Z,82.97
2023-03-06T15:00:12.984Z,83.05
2023-03-06T15:03:37.699Z,82.63
2023-03-06T15:06:23.998Z,82.69
2023-03-06T15:09:10.826Z,82.40
2023-03-06T15:12:10.221Z,82.96
2023-03-06T15:15:58.713Z,82.63
2023-03-06T15:18:34.616Z,82.88
2023-03-06T15:21:22.168Z,82.65
2023-03-06T15:23:57.409Z,82.64
2023-03-06T15:26:34.307Z,82.43
2023-03-06T15:29:23.929Z,82.63
2023-03-06T15:32:00.023Z,82.21
2023-03-06T15:34:33.931Z,82.66
2023-03-06T15:37:22.547Z,82.48
2023-03-06T15:40:10.303Z,82.63
2023-03-06T15:42:40.871Z,82.55
2023-03-06T15:45:20.026Z,82.69
2023-03-06T15:47:52.018Z,82.95
2023-03-06T15:50:24.478Z,82.84
2023-03-06T15:52:55.910Z,82.66
2023-03-06T15:55:28.286Z,83.33
2023-03-06T15:58:01.232Z,83.06
2023-03-06T16:00:36.044Z,83.24
2023-03-06T16:03:09.947Z,83.11
2023-03-06T16:05:43.381Z,83.06
2023-03-06T16:08:18.841Z,82.77
2023-03-06T16:10:54.889Z,82.67
2023-03-06T16:13:30.678Z,82.95
2023-03-06T16:16:03.017Z,82.98
2023-03-06T16:18:34.336Z,83.18
2023-03-06T16:21:07.909Z,82.39
2023-03-06T16:23:40.167Z,82.53
2023-03-06T16:26:20.925Z,82.83
2023-03-06T16:28:52.377Z,82.91
2023-03-06T16:31:28.786Z,82.86
2023-03-06T16:33:59.376Z,83.04
2023-03-06T16:36:31.046Z,83.05
2023-03-06T16:39:04.944Z,82.98
2023-03-06T16:41:35.630Z,82.91
2023-03-06T16:44:10.933Z,83.03
2023-03-06T16:46:46.598Z,82.80
2023-03-06T16:49:21.535Z,82.56
2023-03-06T16:51:57.751Z,82.78
2023-03-06T16:54:28.408Z,83.27
2023-03-06T16:56:59.083Z,82.67
2023-03-06T16:59:29.719Z,83.26
2023-03-06T17:02:02.434Z,83.32
2023-03-06T17:15:21.728Z,84.47
2023-03-06T17:18:04.021Z,84.58
2023-03-06T17:20:49.272Z,85.13
2023-03-06T17:23:23.153Z,84.62
2023-03-06T17:25:53.637Z,85.07
2023-03-06T17:28:24.210Z,85.52
2023-03-06T17:30:57.812Z,86.34
2023-03-06T17:33:30.910Z,87.01
2023-03-06T17:36:03.563Z,86.99
2023-03-06T17:38:37.474Z,86.90
2023-03-06T17:41:10.065Z,86.93
2023-03-06T17:43:41.732Z,86.62
2023-03-06T17:46:14.007Z,86.43
2023-03-06T17:48:46.201Z,86.99
2023-03-06T17:51:16.921Z,87.02
2023-03-06T17:53:47.457Z,86.85
2023-03-06T17:56:18.419Z,87.29
2023-03-06T17:58:49.018Z,87.14
2023-03-06T18:01:21.994Z,87.46
2023-03-06T18:03:54.664Z,87.89
2023-03-06T18:06:27.012Z,88.48
2023-03-06T18:08:57.882Z,89.21
2023-03-06T18:11:28.461Z,89.47
2023-03-06T18:13:59.060Z,89.30
2023-03-06T18:16:30.019Z,88.79
2023-03-06T18:19:02.212Z,88.53
2023-03-06T18:21:38.432Z,88.98
2023-03-06T18:24:10.169Z,89.67
2023-03-06T18:26:40.760Z,89.34
2023-03-06T18:29:11.730Z,89.14
2023-03-06T18:31:43.703Z,89.05
2023-03-06T18:34:19.326Z,89.26
2023-03-06T18:36:52.436Z,89.48
2023-03-06T18:39:27.920Z,89.93
2023-03-06T18:41:58.407Z,90.21
2023-03-06T18:44:28.919Z,90.59
2023-03-06T18:46:59.426Z,90.52
2023-03-06T18:49:31.680Z,90.42
2023-03-06T18:52:02.299Z,89.91
2023-03-06T18:54:32.867Z,89.46
2023-03-06T18:57:03.439Z,89.44
2023-03-06T18:59:33.980Z,89.89
2023-03-06T19:02:04.541Z,90.41
2023-03-06T19:04:38.788Z,90.96
2023-03-06T19:07:11.949Z,90.85
2023-03-06T19:09:44.834Z,90.86
2023-03-06T19:12:15.338Z,91.03
2023-03-06T19:14:48.371Z,90.52
2023-03-06T19:17:21.066Z,89.90
2023-03-06T19:19:55.901Z,90.20
2023-03-06T19:22:27.183Z,90.36
2023-03-06T19:24:57.705Z,90.04
2023-03-06T19:27:28.681Z,90.57
2023-03-06T19:30:01.905Z,90.26
2023-03-06T19:32:35.784Z,90.52
2023-03-06T19:35:08.595Z,90.73
2023-03-06T19:37:40.624Z,90.54
2023-03-06T19:40:15.246Z,90.19
2023-03-06T19:42:46.532Z,90.78
2023-03-06T19:45:16.902Z,91.93
2023-03-06T19:47:47.993Z,92.26
2023-03-06T19:50:23.036Z,92.43
2023-03-06T19:52:54.631Z,92.78
2023-03-06T19:55:27.306Z,92.92
2023-03-06T19:58:03.690Z,93.29
2023-03-06T20:00:34.216Z,94.30
2023-03-06T20:03:04.708Z,94.81
2023-03-06T20:05:36.751Z,95.37
2023-03-06T20:08:07.497Z,95.31
2023-03-06T20:10:39.896Z,95.70
2023-03-06T20:13:10.319Z,95.35
2023-03-06T20:15:40.777Z,95.47
2023-03-06T20:18:11.239Z,95.26
2023-03-06T20:20:43.313Z,95.70
2023-03-06T20:23:16.239Z,95.70
2023-03-06T20:25:47.058Z,95.57
2023-03-06T20:28:17.603Z,95.62
2023-03-06T20:30:48.170Z,95.06
2023-03-06T20:33:20.478Z,95.59
2023-03-06T20:35:52.617Z,94.88
2023-03-06T20:38:23.152Z,95.09
2023-03-06T20:40:56.173Z,95.05
2023-03-06T20:43:26.930Z,95.51
2023-03-06T20:46:01.611Z,96.03
2023-03-06T20:48:32.497Z,95.89
2023-03-06T20:51:06.829Z,96.31
2023-03-06T20:53:37.595Z,97.11
2023-03-06T20:56:08.829Z,97.19
2023-03-06T20:58:39.195Z,97.63
2023-03-06T21:01:09.817Z,98.60
2023-03-06T21:03:40.301Z,98.37
2023-03-06T21:06:12.548Z,98.12
2023-03-06T21:08:43.050Z,98.45
2023-03-06T21:11:13.508Z,99.22
2023-03-06T21:13:44.051Z,98.78
2023-03-06T21:16:16.388Z,98.65
2023-03-06T21:18:46.928Z,98.60
2023-03-06T21:21:20.722Z,98.53
2023-03-06T21:23:51.823Z,98.53
2023-03-06T21:26:24.804Z,98.95
2023-03-06T21:28:55.328Z,99.03
2023-03-06T21:31:26.038Z,98.49
2023-03-06T21:33:56.949Z,98.74
2023-03-06T21:36:29.746Z,98.42
2023-03-06T21:39:00.197Z,98.47
2023-03-06T21:41:33.201Z,98.13
2023-03-06T21:44:04.922Z,98.28
2023-03-06T21:46:36.136Z,98.24
2023-03-06T21:49:07.495Z,98.38
2023-03-06T21:51:39.643Z,98.91
2023-03-06T21:54:10.635Z,98.44
2023-03-06T21:56:41.188Z,98.54
2023-03-06T21:59:11.681Z,98.70
2023-03-06T22:01:43.465Z,98.61
2023-03-06T22:04:13.853Z,98.75
2023-03-06T22:06:46.073Z,98.51
2023-03-06T22:09:19.855Z,97.73
2023-03-06T22:11:50.385Z,97.40
2023-03-06T22:14:20.905Z,97.40
2023-03-06T22:16:53.411Z,95.96
2023-03-06T22:19:23.935Z,95.88
2023-03-06T22:21:56.069Z,96.00
2023-03-06T22:24:29.446Z,96.42
2023-03-06T22:27:00.028Z,96.83
2023-03-06T22:29:30.623Z,97.09
2023-03-06T22:32:01.114Z,96.51
2023-03-06T22:34:31.614Z,95.72
2023-03-06T22:37:03.852Z,95.44
2023-03-06T22:39:34.385Z,95.21
2023-03-06T22:42:04.887Z,95.74
2023-03-06T22:44:35.369Z,95.55
2023-03-06T22:47:05.908Z,94.93
2023-03-06T22:49:36.431Z,94.75
2023-03-06T22:52:09.031Z,93.92
2023-03-06T22:54:39.683Z,93.81
2023-03-06T22:57:10.222Z,93.53
2023-03-06T22:59:40.762Z,93.47
2023-03-06T23:02:11.282Z,93.40
2023-03-06T23:04:41.910Z,93.20
2023-03-06T23:07:14.080Z,93.10
2023-03-06T23:09:44.576Z,92.83
2023-03-06T23:12:15.135Z,92.50
2023-03-06T23:14:50.314Z,92.82
2023-03-06T23:17:20.986Z,92.49
2023-03-06T23:19:52.649Z,92.47
2023-03-06T23:22:25.462Z,92.55
2023-03-06T23:24:55.908Z,92.78
2023-03-06T23:27:26.624Z,92.75
2023-03-06T23:29:59.692Z,92.36
2023-03-06T23:32:30.235Z,92.57
2023-03-06T23:35:00.790Z,92.69
2023-03-06T23:37:32.979Z,92.77
2023-03-06T23:40:03.470Z,93.14
2023-03-06T23:42:35.246Z,93.36
2023-03-06T23:45:06.109Z,93.14
2023-03-06T23:47:36.973Z,93.78
2023-03-06T23:50:08.216Z,93.43
2023-03-06T23:52:40.434Z,93.69
2023-03-06T23:55:11.981Z,93.87
2023-03-06T23:57:42.482Z,93.23
